Time;durP1;ratioP1;P1;durP2;ratioP2;P2;SDS_P1;SDS_P2;PMS_P1;PMS_P2;Temp;Humidity;BMP_temperature;BMP_pressure;BME280_temperature;BME280_humidity;BME280_pressure;Samples;Min_cycle;Max_cycle;Signal;HPM_P1;HPM_P2
2022/12/10 00:01:44;;;;;;;5.30;2.97;;;;;;;;;;4399904;32;68534;-66
2022/12/10 00:04:31;;;;;;;6.68;3.67;;;;;;;;;;4398859;32;67827;-65
2022/12/10 00:07:17;;;;;;;8.77;3.90;;;;;;;;;;4398502;32;60487;-65
2022/12/10 00:10:04;;;;;;;6.97;3.92;;;;;;;;;;4399945;32;70448;-64
2022/12/10 00:12:51;;;;;;;7.60;4.40;;;;;;;;;;4376629;32;69790;-66
2022/12/10 00:15:37;;;;;;;8.07;4.62;;;;;;;;;;4398690;32;66747;-65
2022/12/10 00:18:24;;;;;;;10.95;4.97;;;;;;;;;;4399665;32;71944;-65
2022/12/10 00:21:12;;;;;;;;;;;;;;;;;;4400211;32;65017;-65
2022/12/10 00:23:59;;;;;;;8.47;5.10;;;;;;;;;;4376439;32;68039;-64
2022/12/10 00:26:46;;;;;;;9.00;5.85;;;;;;;;;;4377267;32;59106;-64
2022/12/10 00:29:32;;;;;;;9.73;5.85;;;;;;;;;;4398235;32;72119;-65
2022/12/10 00:32:19;;;;;;;10.70;6.12;;;;;;;;;;4387869;32;64918;-64
2022/12/10 00:35:06;;;;;;;12.65;6.60;;;;;;;;;;4399640;32;67995;-64
2022/12/10 00:37:53;;;;;;;14.50;7.30;;;;;;;;;;4387655;32;59540;-64
2022/12/10 00:40:41;;;;;;;13.07;6.90;;;;;;;;;;4386425;32;71149;-65
2022/12/10 00:43:28;;;;;;;14.02;7.72;;;;;;;;;;4386913;32;70199;-65
2022/12/10 00:46:15;;;;;;;12.88;7.28;;;;;;;;;;4398127;32;67523;-64
2022/12/10 00:49:03;;;;;;;13.45;7.35;;;;;;;;;;4387725;32;71593;-64
2022/12/10 00:51:50;;;;;;;16.23;8.98;;;;;;;;;;4376595;32;67059;-64
2022/12/10 00:54:36;;;;;;;20.85;8.15;;;;;;;;;;4397476;32;68897;-64
2022/12/10 00:57:23;;;;;;;15.25;8.48;;;;;;;;;;4400353;32;66907;-64
2022/12/10 01:00:11;;;;;;;14.70;8.98;;;;;;;;;;4386361;32;71452;-65
2022/12/10 01:02:57;;;;;;;17.92;8.93;;;;;;;;;;4397803;32;65648;-64
2022/12/10 01:05:44;;;;;;;16.23;9.07;;;;;;;;;;4398064;32;67100;-65
2022/12/10 01:08:31;;;;;;;15.80;9.05;;;;;;;;;;4387005;32;59809;-64
2022/12/10 01:11:18;;;;;;;15.07;9.65;;;;;;;;;;4376274;32;70225;-64
2022/12/10 01:14:07;;;;;;;14.38;8.02;;;;;;;;;;4387278;32;69433;-64
2022/12/10 01:16:59;;;;;;;15.40;10.05;;;;;;;;;;4386943;32;67622;-66
2022/12/10 01:19:46;;;;;;;24.73;9.85;;;;;;;;;;4371055;32;60814;-65
2022/12/10 01:22:32;;;;;;;14.95;9.70;;;;;;;;;;4383679;32;70434;-65
2022/12/10 01:25:19;;;;;;;17.23;10.70;;;;;;;;;;4381839;32;69067;-64
2022/12/10 01:28:05;;;;;;;25.15;8.07;;;;;;;;;;4382280;32;67307;-65
2022/12/10 01:30:52;;;;;;;14.45;9.00;;;;;;;;;;4360586;32;72239;-64
2022/12/10 01:33:39;;;;;;;17.30;8.90;;;;;;;;;;4361028;32;66496;-64
2022/12/10 01:36:32;;;;;;;15.95;8.45;;;;;;;;;;4382268;32;67961;-63
2022/12/10 01:39:19;;;;;;;19.77;9.48;;;;;;;;;;4371251;32;59883;-64
2022/12/10 01:42:06;;;;;;;15.55;9.77;;;;;;;;;;4381726;32;70511;-64
2022/12/10 01:45:03;;;;;;;16.35;8.65;;;;;;;;;;4371537;32;65961;-64
2022/12/10 01:47:50;;;;;;;16.05;8.75;;;;;;;;;;4382401;32;67907;-64
2022/12/10 01:50:37;;;;;;;22.67;10.40;;;;;;;;;;4371353;32;59280;-65
2022/12/10 01:53:25;;;;;;;17.75;9.57;;;;;;;;;;4383446;32;69682;-66
2022/12/10 01:56:12;;;;;;;15.93;9.32;;;;;;;;;;4360442;32;69813;-63
2022/12/10 01:58:58;;;;;;;;;;;;;;;;;;4382434;32;66639;-66
2022/12/10 02:01:45;;;;;;;15.70;10.38;;;;;;;;;;4382217;32;71229;-64
2022/12/10 02:04:50;;;;;;;;;;;;;;;;;;4383716;32;65867;-64
2022/12/10 02:08:15;;;;;;;17.73;10.05;;;;;;;;;;4381844;32;69439;-64
2022/12/10 02:11:37;;;;;;;14.32;8.35;;;;;;;;;;4350358;32;67600;-65
2022/12/10 02:14:36;;;;;;;14.80;8.88;;;;;;;;;;4329482;32;71614;-64
2022/12/10 02:17:58;;;;;;;12.35;8.18;;;;;;;;;;4383575;32;64929;-66
2022/12/10 02:20:52;;;;;;;14.32;9.43;;;;;;;;;;4381605;32;68108;-66
2022/12/10 02:24:04;;;;;;;13.35;8.00;;;;;;;;;;4371342;32;60334;-65
2022/12/10 02:27:29;;;;;;;13.35;7.78;;;;;;;;;;4360844;32;70569;-64
2022/12/10 02:30:16;;;;;;;11.90;7.05;;;;;;;;;;4370956;32;69285;-64
2022/12/10 02:33:04;;;;;;;10.25;6.37;;;;;;;;;;4370496;32;68273;-64
2022/12/10 02:35:51;;;;;;;10.48;6.20;;;;;;;;;;4371300;32;59123;-65
2022/12/10 02:38:37;;;;;;;;;;;;;;;;;;4381921;32;70595;-64
2022/12/10 02:41:30;;;;;;;14.68;6.22;;;;;;;;;;4381312;32;69355;-65
2022/12/10 02:44:19;;;;;;;9.75;5.68;;;;;;;;;;4381481;32;67318;-64
2022/12/10 02:47:06;;;;;;;10.60;6.18;;;;;;;;;;4381296;32;71938;-66
2022/12/10 02:49:55;;;;;;;13.35;6.75;;;;;;;;;;4371040;32;65713;-64
2022/12/10 02:52:42;;;;;;;10.60;5.68;;;;;;;;;;4381589;32;66830;-64
2022/12/10 02:55:34;;;;;;;12.15;5.90;;;;;;;;;;4382164;32;60227;-64
2022/12/10 02:58:33;;;;;;;10.52;6.15;;;;;;;;;;4370803;32;70601;-66
2022/12/10 03:01:34;;;;;;;9.60;5.95;;;;;;;;;;4382727;32;64769;-66
2022/12/10 03:04:46;;;;;;;8.60;5.25;;;;;;;;;;4372935;32;67747;-64
2022/12/10 03:08:05;;;;;;;10.02;5.87;;;;;;;;;;4385257;32;60105;-66
2022/12/10 03:11:07;;;;;;;8.88;5.70;;;;;;;;;;4387292;32;70491;-64
2022/12/10 03:14:15;;;;;;;9.55;5.40;;;;;;;;;;4363941;32;68548;-64
2022/12/10 03:17:02;;;;;;;7.47;4.87;;;;;;;;;;4372679;32;68164;-65
2022/12/10 03:19:51;;;;;;;14.70;5.15;;;;;;;;;;4385828;32;71951;-64
2022/12/10 03:22:40;;;;;;;9.18;5.03;;;;;;;;;;4383821;32;65096;-64
2022/12/10 03:25:29;;;;;;;8.10;5.20;;;;;;;;;;4372620;32;68896;-64
2022/12/10 03:28:18;;;;;;;6.97;5.05;;;;;;;;;;4384014;32;67965;-65
2022/12/10 03:31:05;;;;;;;9.80;5.32;;;;;;;;;;4351414;32;71831;-64
2022/12/10 03:33:52;;;;;;;;;;;;;;;;;;4363102;32;65942;-66
2022/12/10 03:36:39;;;;;;;8.50;4.78;;;;;;;;;;4394668;32;68069;-64
2022/12/10 03:39:27;;;;;;;7.30;4.37;;;;;;;;;;4373255;32;59151;-64
2022/12/10 03:42:13;;;;;;;;;;;;;;;;;;4372968;32;70220;-64
2022/12/10 03:44:59;;;;;;;7.20;4.53;;;;;;;;;;4385045;32;69547;-64
2022/12/10 03:47:46;;;;;;;8.40;5.50;;;;;;;;;;4362460;32;67571;-64
2022/12/10 03:50:33;;;;;;;9.20;5.57;;;;;;;;;;4385140;32;71544;-64
2022/12/10 03:53:19;;;;;;;8.65;5.10;;;;;;;;;;4361538;32;70988;-63
2022/12/10 03:56:06;;;;;;;7.10;4.72;;;;;;;;;;4383322;32;69551;-64
2022/12/10 03:58:52;;;;;;;7.18;4.32;;;;;;;;;;4383493;32;66671;-65
2022/12/10 04:01:40;;;;;;;8.00;4.97;;;;;;;;;;4383301;32;71988;-63
2022/12/10 04:04:27;;;;;;;7.00;4.43;;;;;;;;;;4372766;32;65477;-64
2022/12/10 04:07:13;;;;;;;8.27;5.43;;;;;;;;;;4362270;32;67885;-64
2022/12/10 04:10:00;;;;;;;7.90;5.00;;;;;;;;;;4362386;32;60114;-64
2022/12/10 04:16:26;;;;;;;10.00;5.30;;;;;;;;;;4371889;32;70055;-64
2022/12/10 04:19:05;;;;;;;10.93;5.70;;;;;;;;;;4383310;32;67887;-64
2022/12/10 04:28:20;;;;;;;10.18;4.87;;;;;;;;;;4383281;32;69452;-64
2022/12/10 04:31:07;;;;;;;9.15;5.25;;;;;;;;;;4372775;32;66931;-64
2022/12/10 04:33:53;;;;;;;8.52;5.12;;;;;;;;;;4383049;32;70702;-64
2022/12/10 04:36:40;;;;;;;8.05;4.80;;;;;;;;;;4362014;32;66160;-65
2022/12/10 04:39:27;;;;;;;9.25;5.10;;;;;;;;;;4384476;32;66922;-64
2022/12/10 04:42:13;;;;;;;8.80;4.57;;;;;;;;;;4382170;32;68434;-64
2022/12/10 04:45:00;;;;;;;9.77;5.62;;;;;;;;;;4382803;32;71800;-64
2022/12/10 04:47:47;;;;;;;8.95;4.97;;;;;;;;;;4384168;32;65684;-64
2022/12/10 04:50:34;;;;;;;7.82;4.93;;;;;;;;;;4383088;32;68027;-64
2022/12/10 04:53:22;;;;;;;6.18;4.10;;;;;;;;;;4382628;32;60534;-65
2022/12/10 04:56:08;;;;;;;11.35;5.20;;;;;;;;;;4373086;32;70247;-64
2022/12/10 04:58:56;;;;;;;7.93;4.32;;;;;;;;;;4385038;32;69238;-66
2022/12/10 05:01:43;;;;;;;7.47;4.07;;;;;;;;;;4372847;32;66647;-64
2022/12/10 05:04:30;;;;;;;7.07;4.05;;;;;;;;;;4382887;32;70808;-63
2022/12/10 05:07:17;;;;;;;8.93;4.85;;;;;;;;;;4382780;32;70635;-64
2022/12/10 05:10:04;;;;;;;5.80;3.85;;;;;;;;;;4382717;32;69473;-64
2022/12/10 05:12:51;;;;;;;9.15;4.40;;;;;;;;;;4382831;32;67726;-64
2022/12/10 05:15:40;;;;;;;6.90;4.57;;;;;;;;;;4382898;32;71656;-65
2022/12/10 05:18:27;;;;;;;7.28;4.20;;;;;;;;;;4382622;32;65811;-65
2022/12/10 05:21:16;;;;;;;7.45;3.65;;;;;;;;;;4371090;32;67377;-64
2022/12/10 05:24:02;;;;;;;6.12;3.55;;;;;;;;;;4371956;32;60235;-65
2022/12/10 05:26:50;;;;;;;6.25;4.20;;;;;;;;;;4370979;32;69594;-66
2022/12/10 05:29:37;;;;;;;8.57;4.90;;;;;;;;;;4382278;32;69720;-64
2022/12/10 05:32:24;;;;;;;6.20;3.95;;;;;;;;;;4381884;32;67503;-65
2022/12/10 05:35:11;;;;;;;5.68;3.55;;;;;;;;;;4382598;32;60001;-65
2022/12/10 05:37:57;;;;;;;7.65;3.20;;;;;;;;;;4371489;32;69577;-64
2022/12/10 05:40:44;;;;;;;7.72;3.50;;;;;;;;;;4371033;32;69868;-64
2022/12/10 05:43:31;;;;;;;6.50;3.37;;;;;;;;;;4371582;32;67614;-63
2022/12/10 05:46:24;;;;;;;4.95;3.10;;;;;;;;;;4359988;32;71254;-64
2022/12/10 05:49:10;;;;;;;6.78;3.78;;;;;;;;;;4371666;32;64843;-64
2022/12/10 05:51:57;;;;;;;5.70;2.97;;;;;;;;;;4383447;32;67900;-65
2022/12/10 05:54:44;;;;;;;7.75;3.22;;;;;;;;;;4382119;32;60229;-64
2022/12/10 05:57:30;;;;;;;7.47;3.70;;;;;;;;;;4381541;32;72477;-65
2022/12/10 06:00:17;;;;;;;5.55;3.08;;;;;;;;;;4383455;32;65928;-64
2022/12/10 06:03:04;;;;;;;5.68;2.72;;;;;;;;;;4360919;32;68144;-64
2022/12/10 06:05:51;;;;;;;7.00;2.95;;;;;;;;;;4382093;32;60177;-64
2022/12/10 06:08:38;;;;;;;;;;;;;;;;;;4382288;32;69876;-64
2022/12/10 06:11:27;;;;;;;4.30;2.47;;;;;;;;;;4371391;32;68421;-64
2022/12/10 06:14:13;;;;;;;10.07;2.92;;;;;;;;;;4371363;32;67167;-64
2022/12/10 06:17:00;;;;;;;4.12;2.42;;;;;;;;;;4381582;32;71675;-64
2022/12/10 06:19:47;;;;;;;5.12;2.90;;;;;;;;;;4360912;32;64755;-64
2022/12/10 06:22:34;;;;;;;5.37;2.50;;;;;;;;;;4381804;32;69368;-64
2022/12/10 06:25:21;;;;;;;6.22;2.60;;;;;;;;;;4360550;32;66795;-64
2022/12/10 06:28:08;;;;;;;8.82;3.12;;;;;;;;;;4370869;32;71608;-64
2022/12/10 06:30:57;;;;;;;7.55;2.37;;;;;;;;;;4371135;32;66163;-64
2022/12/10 06:33:44;;;;;;;6.68;2.90;;;;;;;;;;4381138;32;67605;-64
2022/12/10 06:36:30;;;;;;;4.25;2.50;;;;;;;;;;4381779;32;59034;-64
2022/12/10 06:39:17;;;;;;;5.32;2.40;;;;;;;;;;4382965;32;70601;-64
2022/12/10 06:42:05;;;;;;;6.82;2.60;;;;;;;;;;4380805;32;69740;-64
2022/12/10 06:44:52;;;;;;;5.47;2.80;;;;;;;;;;4380825;32;66472;-65
2022/12/10 06:47:38;;;;;;;2.90;1.90;;;;;;;;;;4370438;32;60963;-64
2022/12/10 06:50:25;;;;;;;3.05;1.87;;;;;;;;;;4370827;32;70569;-64
2022/12/10 06:53:11;;;;;;;5.25;2.40;;;;;;;;;;4381516;32;69223;-64
2022/12/10 06:55:59;;;;;;;;;;;;;;;;;;4360713;32;67234;-65
2022/12/10 06:58:46;;;;;;;4.07;2.10;;;;;;;;;;4381792;32;71739;-64
2022/12/10 07:01:32;;;;;;;5.55;2.40;;;;;;;;;;4370857;32;66212;-64
2022/12/10 07:04:19;;;;;;;4.45;2.35;;;;;;;;;;4359453;32;67780;-64
2022/12/10 07:07:06;;;;;;;6.15;2.60;;;;;;;;;;4370943;32;60365;-64
2022/12/10 07:09:53;;;;;;;4.45;2.17;;;;;;;;;;4370522;32;70718;-64
2022/12/10 07:12:40;;;;;;;3.47;2.40;;;;;;;;;;4381362;32;65762;-64
2022/12/10 07:15:28;;;;;;;5.57;2.20;;;;;;;;;;4370867;32;67734;-65
2022/12/10 07:18:14;;;;;;;;;;;;;;;;;;4381706;32;60127;-65
2022/12/10 07:21:01;;;;;;;6.00;2.37;;;;;;;;;;4370917;32;70287;-64
2022/12/10 07:23:48;;;;;;;5.30;2.28;;;;;;;;;;4382487;32;68638;-64
2022/12/10 07:26:36;;;;;;;5.15;2.30;;;;;;;;;;4369879;32;66698;-64
2022/12/10 07:29:23;;;;;;;3.00;1.95;;;;;;;;;;4382352;32;70782;-65
2022/12/10 07:32:10;;;;;;;5.50;2.40;;;;;;;;;;4360340;32;64826;-65
2022/12/10 07:34:56;;;;;;;3.90;2.40;;;;;;;;;;4348761;32;68279;-64
2022/12/10 07:40:21;;;;;;;7.22;2.42;;;;;;;;;;3846116;37;43814;-65
2022/12/10 07:43:09;;;;;;;5.85;2.37;;;;;;;;;;4388661;32;59243;-64
2022/12/10 07:45:56;;;;;;;;;;;;;;;;;;4399437;32;70724;-63
2022/12/10 07:48:44;;;;;;;6.20;2.25;;;;;;;;;;4388418;32;69470;-64
2022/12/10 07:51:31;;;;;;;5.82;2.42;;;;;;;;;;4388293;32;66595;-64
2022/12/10 07:54:18;;;;;;;3.58;2.12;;;;;;;;;;4388171;32;71399;-64
2022/12/10 07:57:05;;;;;;;4.70;2.47;;;;;;;;;;4388390;32;64926;-65
2022/12/10 07:59:51;;;;;;;6.53;2.50;;;;;;;;;;4385431;32;66814;-65
2022/12/10 08:02:38;;;;;;;4.37;2.22;;;;;;;;;;4385703;32;59898;-65
2022/12/10 08:05:24;;;;;;;5.40;2.60;;;;;;;;;;4398534;32;71763;-66
2022/12/10 08:08:11;;;;;;;4.57;2.20;;;;;;;;;;4387985;32;64172;-65
2022/12/10 08:11:00;;;;;;;8.43;2.53;;;;;;;;;;4410817;32;67495;-65
2022/12/10 08:13:47;;;;;;;5.97;2.45;;;;;;;;;;4388369;32;60368;-65
2022/12/10 08:16:35;;;;;;;5.37;2.53;;;;;;;;;;4385086;32;71122;-64
2022/12/10 08:19:22;;;;;;;3.08;1.90;;;;;;;;;;4377128;32;69527;-65
2022/12/10 08:22:09;;;;;;;6.18;2.45;;;;;;;;;;4374459;32;68125;-65
2022/12/10 08:24:55;;;;;;;4.53;2.53;;;;;;;;;;4398309;32;71850;-65
2022/12/10 08:27:42;;;;;;;6.57;2.70;;;;;;;;;;4396093;32;64558;-64
2022/12/10 08:30:29;;;;;;;4.68;2.33;;;;;;;;;;4395756;32;68541;-65
2022/12/10 08:33:15;;;;;;;;;;;;;;;;;;4388351;32;66738;-65
2022/12/10 08:36:02;;;;;;;5.28;2.40;;;;;;;;;;4410686;32;72100;-64
2022/12/10 08:38:49;;;;;;;6.15;2.60;;;;;;;;;;4398066;32;64839;-65
2022/12/10 08:41:36;;;;;;;10.85;2.55;;;;;;;;;;4388271;32;67497;-64
2022/12/10 08:44:22;;;;;;;4.20;1.98;;;;;;;;;;4399385;32;60297;-64
2022/12/10 08:47:09;;;;;;;6.05;2.60;;;;;;;;;;4399090;32;69726;-64
2022/12/10 08:49:56;;;;;;;5.87;2.30;;;;;;;;;;4393616;32;69994;-64
2022/12/10 08:52:42;;;;;;;3.75;2.20;;;;;;;;;;4378331;32;66849;-65
2022/12/10 08:55:29;;;;;;;7.43;2.72;;;;;;;;;;4368500;32;58875;-64
2022/12/10 08:58:15;;;;;;;7.07;2.37;;;;;;;;;;4388935;32;70340;-65
2022/12/10 09:01:08;;;;;;;6.78;2.35;;;;;;;;;;4388081;32;69613;-64
2022/12/10 09:03:54;;;;;;;5.15;2.20;;;;;;;;;;4387945;32;67680;-64
2022/12/10 09:06:41;;;;;;;3.78;2.08;;;;;;;;;;4377275;32;71935;-65
2022/12/10 09:09:28;;;;;;;6.75;2.75;;;;;;;;;;4374685;32;66005;-65
2022/12/10 09:12:15;;;;;;;4.53;2.67;;;;;;;;;;4385058;32;67623;-64
2022/12/10 09:15:01;;;;;;;6.18;2.90;;;;;;;;;;4374582;32;61641;-64
2022/12/10 09:17:48;;;;;;;3.22;1.85;;;;;;;;;;4387592;32;70267;-65
2022/12/10 09:20:37;;;;;;;4.97;2.08;;;;;;;;;;4374465;32;65800;-64
2022/12/10 09:23:24;;;;;;;5.60;2.17;;;;;;;;;;4387841;32;66787;-64
2022/12/10 09:26:15;;;;;;;4.93;2.00;;;;;;;;;;4400962;32;60201;-65
2022/12/10 09:29:02;;;;;;;4.22;2.55;;;;;;;;;;4389146;32;70453;-65
2022/12/10 09:31:52;;;;;;;6.12;2.37;;;;;;;;;;4375330;32;69618;-66
2022/12/10 09:34:39;;;;;;;4.22;2.42;;;;;;;;;;4389001;32;67724;-64
2022/12/10 09:37:26;;;;;;;7.05;2.72;;;;;;;;;;4385143;32;72288;-64
2022/12/10 09:40:17;;;;;;;6.05;2.12;;;;;;;;;;4374122;32;66600;-65
2022/12/10 09:43:51;;;;;;;9.60;2.30;;;;;;;;;;4374747;32;67962;-64
2022/12/10 09:46:54;;;;;;;7.20;1.85;;;;;;;;;;4380056;32;67708;-64
2022/12/10 09:49:55;;;;;;;6.12;2.33;;;;;;;;;;4387551;32;71658;-65
2022/12/10 09:52:45;;;;;;;6.97;2.67;;;;;;;;;;4387660;32;66165;-64
2022/12/10 09:55:36;;;;;;;7.60;2.50;;;;;;;;;;4373915;32;68833;-64
2022/12/10 09:58:26;;;;;;;4.37;2.30;;;;;;;;;;4363443;32;60837;-64
2022/12/10 10:01:16;;;;;;;10.27;2.47;;;;;;;;;;4386850;32;69666;-64
2022/12/10 10:04:04;;;;;;;5.20;2.25;;;;;;;;;;4386996;32;68405;-65
2022/12/10 10:06:50;;;;;;;4.80;2.33;;;;;;;;;;4387000;32;67613;-65
2022/12/10 10:09:40;;;;;;;6.05;2.35;;;;;;;;;;4374035;32;60692;-65
2022/12/10 10:12:31;;;;;;;4.85;2.37;;;;;;;;;;4386908;32;69577;-64
2022/12/10 10:15:26;;;;;;;8.90;2.45;;;;;;;;;;4376301;32;69390;-65
2022/12/10 10:18:30;;;;;;;8.48;2.30;;;;;;;;;;4386827;32;67583;-64
2022/12/10 10:21:25;;;;;;;7.82;3.20;;;;;;;;;;4376023;32;71722;-66
2022/12/10 10:24:18;;;;;;;3.87;2.25;;;;;;;;;;4373572;32;66676;-65
2022/12/10 10:27:27;;;;;;;5.28;2.75;;;;;;;;;;4373886;32;67968;-65
2022/12/10 10:30:20;;;;;;;4.75;2.10;;;;;;;;;;4384295;32;60689;-65
2022/12/10 10:33:09;;;;;;;5.90;2.10;;;;;;;;;;4376129;32;70532;-64
2022/12/10 10:35:58;;;;;;;5.22;2.42;;;;;;;;;;4376155;32;65189;-64
2022/12/10 10:38:48;;;;;;;4.50;1.98;;;;;;;;;;4386596;32;67891;-64
2022/12/10 10:41:39;;;;;;;5.25;2.83;;;;;;;;;;4384199;32;60101;-64
2022/12/10 10:44:36;;;;;;;6.65;2.20;;;;;;;;;;4373388;32;71529;-65
2022/12/10 10:47:28;;;;;;;5.03;2.50;;;;;;;;;;4386581;32;69138;-64
2022/12/10 10:50:25;;;;;;;5.20;2.33;;;;;;;;;;4362463;32;68175;-64
2022/12/10 10:53:29;;;;;;;3.28;2.05;;;;;;;;;;4362529;32;72049;-64
2022/12/10 10:56:22;;;;;;;6.12;2.45;;;;;;;;;;4362844;32;67155;-64
2022/12/10 10:59:17;;;;;;;4.47;2.60;;;;;;;;;;4398896;32;67738;-64
2022/12/10 11:02:21;;;;;;;4.50;2.05;;;;;;;;;;4373082;32;68900;-66
2022/12/10 11:05:26;;;;;;;3.22;2.03;;;;;;;;;;4383480;32;72851;-64
2022/12/10 11:08:20;;;;;;;5.45;2.30;;;;;;;;;;4373492;32;67278;-64
2022/12/10 11:11:16;;;;;;;6.65;2.53;;;;;;;;;;4383445;32;68256;-64
2022/12/10 11:14:26;;;;;;;6.10;2.33;;;;;;;;;;4362084;32;60573;-64
2022/12/10 11:17:15;;;;;;;7.03;2.40;;;;;;;;;;4384510;32;69555;-65
2022/12/10 11:20:16;;;;;;;7.25;2.83;;;;;;;;;;4386079;32;68276;-65
2022/12/10 11:23:09;;;;;;;5.30;2.17;;;;;;;;;;4372823;32;68137;-64
2022/12/10 11:25:59;;;;;;;5.35;2.30;;;;;;;;;;4375772;32;71550;-64
2022/12/10 11:29:04;;;;;;;6.25;2.62;;;;;;;;;;4398048;32;69578;-64
2022/12/10 11:32:15;;;;;;;6.28;2.40;;;;;;;;;;4398150;32;69453;-65
2022/12/10 11:35:01;;;;;;;5.28;2.50;;;;;;;;;;4362152;32;68475;-65
2022/12/10 11:37:49;;;;;;;6.20;2.33;;;;;;;;;;4386048;32;71855;-66
2022/12/10 11:40:57;;;;;;;3.70;2.30;;;;;;;;;;4385988;32;65054;-65
2022/12/10 11:44:04;;;;;;;;;;;;;;;;;;4398439;32;67864;-65
2022/12/10 11:46:54;;;;;;;4.32;1.90;;;;;;;;;;4395051;32;60093;-66
2022/12/10 11:50:09;;;;;;;4.47;2.17;;;;;;;;;;4383117;32;71129;-64
2022/12/10 11:53:08;;;;;;;5.25;2.28;;;;;;;;;;4375218;32;69100;-64
2022/12/10 11:56:43;;;;;;;4.10;2.22;;;;;;;;;;4372372;32;67681;-65
2022/12/10 12:00:05;;;;;;;4.60;2.58;;;;;;;;;;4307925;32;59253;-64
2022/12/10 12:02:54;;;;;;;3.62;2.05;;;;;;;;;;4312657;32;69722;-65
2022/12/10 12:05:47;;;;;;;4.85;2.08;;;;;;;;;;4372374;32;70632;-64
2022/12/10 12:09:45;;;;;;;7.43;2.40;;;;;;;;;;3847460;37;43496;-65
2022/12/10 12:13:04;;;;;;;4.57;2.35;;;;;;;;;;4409993;32;59284;-64
2022/12/10 12:15:56;;;;;;;8.80;2.50;;;;;;;;;;4384825;32;70567;-64
2022/12/10 12:18:59;;;;;;;5.62;2.62;;;;;;;;;;4409552;32;69697;-64
2022/12/10 12:21:47;;;;;;;3.53;2.37;;;;;;;;;;4388331;32;67547;-64
2022/12/10 12:24:39;;;;;;;3.53;2.03;;;;;;;;;;4398904;32;70851;-65
2022/12/10 12:27:52;;;;;;;7.45;2.45;;;;;;;;;;4399129;32;65243;-64
2022/12/10 12:30:41;;;;;;;5.32;2.10;;;;;;;;;;4398442;32;67034;-64
2022/12/10 12:33:53;;;;;;;4.80;2.10;;;;;;;;;;4387564;32;59915;-65
2022/12/10 12:36:40;;;;;;;4.12;2.17;;;;;;;;;;4409217;32;72265;-64
2022/12/10 12:39:32;;;;;;;5.10;2.25;;;;;;;;;;4398949;32;66217;-65
2022/12/10 12:42:53;;;;;;;7.03;2.08;;;;;;;;;;4398785;32;67507;-63
2022/12/10 12:45:46;;;;;;;5.72;2.60;;;;;;;;;;4409998;32;59007;-66
2022/12/10 12:48:53;;;;;;;5.53;2.35;;;;;;;;;;4398471;32;70441;-64
2022/12/10 12:51:53;;;;;;;5.45;2.53;;;;;;;;;;4408934;32;70216;-65
2022/12/10 12:54:41;;;;;;;8.63;2.60;;;;;;;;;;4409662;32;67866;-64
2022/12/10 12:57:31;;;;;;;8.25;2.20;;;;;;;;;;4391471;32;71097;-64
2022/12/10 13:00:21;;;;;;;4.97;2.17;;;;;;;;;;4412306;32;66272;-64
2022/12/10 13:03:20;;;;;;;5.57;2.33;;;;;;;;;;4399340;32;69297;-64
2022/12/10 13:06:22;;;;;;;3.05;1.37;;;;;;;;;;4397520;32;68562;-64
2022/12/10 13:09:25;;;;;;;5.90;2.30;;;;;;;;;;4409869;32;72072;-64
2022/12/10 13:12:14;;;;;;;2.40;1.52;;;;;;;;;;4408897;32;65987;-63
2022/12/10 13:15:18;;;;;;;4.53;1.77;;;;;;;;;;4409004;32;66749;-64
2022/12/10 13:18:25;;;;;;;5.30;2.25;;;;;;;;;;4409358;32;60072;-65
2022/12/10 13:21:31;;;;;;;4.43;2.45;;;;;;;;;;4384635;32;70376;-64
2022/12/10 13:24:34;;;;;;;3.53;1.77;;;;;;;;;;4398599;32;69245;-64
2022/12/10 13:27:33;;;;;;;3.20;1.70;;;;;;;;;;4398601;32;67978;-65
2022/12/10 13:30:34;;;;;;;4.87;1.98;;;;;;;;;;4387870;32;60716;-65
2022/12/10 13:33:21;;;;;;;3.67;2.05;;;;;;;;;;4398476;32;70491;-65
2022/12/10 13:36:07;;;;;;;6.50;2.25;;;;;;;;;;4387278;32;69006;-64
2022/12/10 13:39:03;;;;;;;3.28;1.50;;;;;;;;;;4387917;32;66657;-64
2022/12/10 13:45:22;;;;;;;3.62;2.47;;;;;;;;;;4399879;32;65020;-63
2022/12/10 13:48:14;;;;;;;4.93;2.20;;;;;;;;;;4399741;32;66808;-64
2022/12/10 13:51:39;;;;;;;2.97;2.08;;;;;;;;;;4400106;32;60585;-64
2022/12/10 13:54:50;;;;;;;2.50;1.65;;;;;;;;;;3847683;37;43786;-64
2022/12/10 13:57:55;;;;;;;5.32;1.92;;;;;;;;;;4410116;32;59244;-63
2022/12/10 14:00:56;;;;;;;2.17;1.40;;;;;;;;;;4409821;32;69493;-64
2022/12/10 14:03:51;;;;;;;5.07;1.98;;;;;;;;;;4409795;32;69731;-64
2022/12/10 14:06:42;;;;;;;3.15;1.73;;;;;;;;;;4410974;32;67863;-64
2022/12/10 14:09:34;;;;;;;2.75;1.55;;;;;;;;;;4409717;32;71522;-64
2022/12/10 14:12:35;;;;;;;4.55;1.92;;;;;;;;;;4409708;32;66087;-64
2022/12/10 14:15:26;;;;;;;2.22;1.48;;;;;;;;;;4409480;32;67345;-65
2022/12/10 14:18:15;;;;;;;3.42;1.60;;;;;;;;;;4409641;32;60341;-64
2022/12/10 14:21:05;;;;;;;3.10;1.90;;;;;;;;;;4410608;32;70818;-64
2022/12/10 14:23:52;;;;;;;4.93;1.70;;;;;;;;;;4398822;32;66230;-64
2022/12/10 14:26:39;;;;;;;2.85;1.70;;;;;;;;;;4409579;32;66709;-64
2022/12/10 14:29:26;;;;;;;3.33;2.00;;;;;;;;;;4409124;32;59791;-66
2022/12/10 14:32:23;;;;;;;3.72;1.80;;;;;;;;;;4410504;32;70669;-64
2022/12/10 14:35:21;;;;;;;2.60;1.20;;;;;;;;;;4398705;32;69283;-64
2022/12/10 14:38:19;;;;;;;3.83;1.80;;;;;;;;;;4398564;32;67638;-64
2022/12/10 14:41:05;;;;;;;4.30;1.60;;;;;;;;;;4398473;32;72018;-64
2022/12/10 14:43:53;;;;;;;4.15;1.62;;;;;;;;;;4376599;32;65920;-64
2022/12/10 14:46:39;;;;;;;3.50;1.67;;;;;;;;;;4409143;32;69291;-64
2022/12/10 14:49:27;;;;;;;7.40;1.73;;;;;;;;;;4408748;32;67443;-65
2022/12/10 14:52:20;;;;;;;2.28;1.40;;;;;;;;;;4397788;32;71687;-64
2022/12/10 14:55:13;;;;;;;2.90;1.50;;;;;;;;;;4387586;32;65603;-63
2022/12/10 14:58:03;;;;;;;3.65;1.30;;;;;;;;;;4410165;32;67544;-66
2022/12/10 15:00:49;;;;;;;3.85;1.60;;;;;;;;;;4399238;32;60117;-65
2022/12/10 15:03:44;;;;;;;5.30;1.30;;;;;;;;;;4409007;32;70475;-63
2022/12/10 15:06:35;;;;;;;4.78;1.70;;;;;;;;;;4388219;32;69474;-64
2022/12/10 15:09:26;;;;;;;3.67;1.67;;;;;;;;;;4387362;32;67063;-64
2022/12/10 15:12:44;;;;;;;2.47;1.05;;;;;;;;;;4398879;32;60075;-64
2022/12/10 15:15:34;;;;;;;3.83;1.33;;;;;;;;;;4397881;32;71054;-64
2022/12/10 15:18:30;;;;;;;6.53;1.80;;;;;;;;;;4387902;32;68525;-64
2022/12/10 15:21:21;;;;;;;5.15;1.80;;;;;;;;;;4398554;32;67905;-64
2022/12/10 15:24:15;;;;;;;6.82;2.12;;;;;;;;;;4398409;32;71116;-64
2022/12/10 15:27:02;;;;;;;5.87;1.80;;;;;;;;;;4388122;32;64947;-64
2022/12/10 15:29:50;;;;;;;3.28;1.35;;;;;;;;;;4387295;32;67177;-63
2022/12/10 15:32:36;;;;;;;1.95;1.42;;;;;;;;;;4398601;32;60129;-65
2022/12/10 15:35:23;;;;;;;1.83;1.35;;;;;;;;;;4399476;32;70454;-64
2022/12/10 15:38:14;;;;;;;3.03;1.35;;;;;;;;;;4397908;32;66556;-64
2022/12/10 15:41:32;;;;;;;7.85;1.77;;;;;;;;;;4388046;32;67594;-64
2022/12/10 15:44:38;;;;;;;2.35;1.48;;;;;;;;;;4376927;32;60341;-64
2022/12/10 15:47:26;;;;;;;3.97;1.45;;;;;;;;;;4377258;32;70512;-65
2022/12/10 15:50:13;;;;;;;4.95;1.60;;;;;;;;;;4387581;32;68330;-65
2022/12/10 15:53:00;;;;;;;3.75;1.70;;;;;;;;;;4386492;32;68366;-64
2022/12/10 15:55:47;;;;;;;2.67;1.12;;;;;;;;;;4387505;32;71922;-65
2022/12/10 15:58:34;;;;;;;4.40;1.55;;;;;;;;;;4387501;32;65007;-66
2022/12/10 16:01:21;;;;;;;5.32;1.35;;;;;;;;;;4399624;32;66609;-66
2022/12/10 16:04:08;;;;;;;;;;;;;;;;;;4399814;32;67444;-65
2022/12/10 16:06:54;;;;;;;1.83;1.08;;;;;;;;;;4398704;32;71484;-64
2022/12/10 16:09:41;;;;;;;1.40;1.00;;;;;;;;;;4399780;32;66227;-66
2022/12/10 16:12:28;;;;;;;2.95;1.40;;;;;;;;;;4399176;32;67868;-64
2022/12/10 16:15:24;;;;;;;3.70;1.58;;;;;;;;;;4401442;32;59072;-64
2022/12/10 16:18:11;;;;;;;3.22;1.48;;;;;;;;;;4398708;32;70344;-64
2022/12/10 16:20:58;;;;;;;4.20;1.40;;;;;;;;;;4398076;32;69066;-64
2022/12/10 16:23:46;;;;;;;2.10;1.37;;;;;;;;;;4399249;32;67315;-64
2022/12/10 16:26:33;;;;;;;2.30;1.50;;;;;;;;;;4387986;32;58822;-65
2022/12/10 16:29:21;;;;;;;2.55;1.30;;;;;;;;;;4387184;32;69657;-64
2022/12/10 16:32:09;;;;;;;3.25;1.30;;;;;;;;;;4386126;32;70247;-63
2022/12/10 16:34:56;;;;;;;2.78;1.30;;;;;;;;;;4386576;32;66520;-65
2022/12/10 16:37:44;;;;;;;2.08;1.12;;;;;;;;;;4397223;32;71563;-64
2022/12/10 16:40:31;;;;;;;1.48;1.02;;;;;;;;;;4397690;32;65852;-64
2022/12/10 16:43:22;;;;;;;3.42;1.35;;;;;;;;;;4375566;32;68300;-64
2022/12/10 16:46:11;;;;;;;3.20;1.27;;;;;;;;;;4399139;32;59122;-64
2022/12/10 16:48:58;;;;;;;2.03;1.40;;;;;;;;;;4375979;32;70711;-64
2022/12/10 16:51:44;;;;;;;1.60;1.23;;;;;;;;;;4375165;32;65299;-64
2022/12/10 16:54:31;;;;;;;4.22;1.50;;;;;;;;;;4397472;32;67786;-63
2022/12/10 16:57:17;;;;;;;3.72;1.23;;;;;;;;;;4397771;32;58932;-64
2022/12/10 17:00:05;;;;;;;4.37;1.40;;;;;;;;;;4399292;32;70166;-64
2022/12/10 17:02:52;;;;;;;3.60;0.75;;;;;;;;;;4398776;32;68415;-64
2022/12/10 17:05:43;;;;;;;3.70;1.42;;;;;;;;;;4398639;32;67626;-63
2022/12/10 17:08:30;;;;;;;2.97;1.40;;;;;;;;;;4398580;32;71685;-64
2022/12/10 17:11:44;;;;;;;2.58;1.52;;;;;;;;;;4386704;32;65812;-64
2022/12/10 17:14:34;;;;;;;2.65;1.33;;;;;;;;;;4376805;32;67666;-64
2022/12/10 17:17:20;;;;;;;3.72;1.40;;;;;;;;;;4385850;32;67393;-65
2022/12/10 17:20:16;;;;;;;1.92;1.10;;;;;;;;;;4397041;32;70842;-64
2022/12/10 17:23:03;;;;;;;3.53;1.27;;;;;;;;;;4385884;32;66581;-63
2022/12/10 17:25:50;;;;;;;2.83;1.00;;;;;;;;;;4385909;32;68090;-63
2022/12/10 17:28:36;;;;;;;;;;;;;;;;;;4386295;32;59913;-65